sensor_id;sensor_type;location;lat;lon;timestamp;pressure;altitude;pressure_sealevel;temperature
62930;BMP280;49036;42.782;23.108;2023-04-06T00:02:04;-13971.50;;;-1.94
62930;BMP280;49036;42.782;23.108;2023-04-06T00:04:29;-13972.69;;;-1.90
62930;BMP280;49036;42.782;23.108;2023-04-06T00:06:55;-13972.19;;;-1.92
62930;BMP280;49036;42.782;23.108;2023-04-06T00:09:21;-13972.69;;;-1.90
62930;BMP280;49036;42.782;23.108;2023-04-06T00:11:47;-13974.09;;;-1.86
62930;BMP280;49036;42.782;23.108;2023-04-06T00:14:12;-13974.78;;;-1.84
62930;BMP280;49036;42.782;23.108;2023-04-06T00:16:39;-13974.78;;;-1.84
62930;BMP280;49036;42.782;23.108;2023-04-06T00:19:04;-13975.28;;;-1.83
62930;BMP280;49036;42.782;23.108;2023-04-06T00:21:30;-13975.28;;;-1.83
62930;BMP280;49036;42.782;23.108;2023-04-06T00:23:56;-13973.75;;;-1.87
62930;BMP280;49036;42.782;23.108;2023-04-06T00:26:22;-13975.13;;;-1.83
62930;BMP280;49036;42.782;23.108;2023-04-06T00:28:47;-13974.94;;;-1.84
62930;BMP280;49036;42.782;23.108;2023-04-06T00:31:15;-13974.94;;;-1.84
62930;BMP280;49036;42.782;23.108;2023-04-06T00:33:40;-13975.81;;;-1.81
62930;BMP280;49036;42.782;23.108;2023-04-06T00:36:06;-13975.28;;;-1.83
62930;BMP280;49036;42.782;23.108;2023-04-06T00:38:32;-13974.78;;;-1.84
62930;BMP280;49036;42.782;23.108;2023-04-06T00:40:57;-13973.91;;;-1.87
62930;BMP280;49036;42.782;23.108;2023-04-06T00:43:23;-13970.81;;;-1.96
62930;BMP280;49036;42.782;23.108;2023-04-06T00:45:49;-13970.81;;;-1.96
62930;BMP280;49036;42.782;23.108;2023-04-06T00:48:16;-13971.00;;;-1.95
62930;BMP280;49036;42.782;23.108;2023-04-06T00:50:42;-13972.19;;;-1.92
62930;BMP280;49036;42.782;23.108;2023-04-06T00:53:07;-13971.00;;;-1.95
62930;BMP280;49036;42.782;23.108;2023-04-06T00:55:33;-13972.88;;;-1.90
62930;BMP280;49036;42.782;23.108;2023-04-06T00:58:01;-13969.78;;;-1.99
62930;BMP280;49036;42.782;23.108;2023-04-06T01:00:27;-13969.78;;;-1.99
62930;BMP280;49036;42.782;23.108;2023-04-06T01:02:53;-13971.84;;;-1.93
62930;BMP280;49036;42.782;23.108;2023-04-06T01:05:18;-13973.22;;;-1.89
62930;BMP280;49036;42.782;23.108;2023-04-06T01:07:44;-13971.34;;;-1.94
62930;BMP280;49036;42.782;23.108;2023-04-06T01:10:25;-13971.34;;;-1.94
62930;BMP280;49036;42.782;23.108;2023-04-06T01:12:51;-13972.00;;;-1.92
62930;BMP280;49036;42.782;23.108;2023-04-06T01:15:17;-13970.66;;;-1.96
62930;BMP280;49036;42.782;23.108;2023-04-06T01:17:42;-13970.81;;;-1.96
62930;BMP280;49036;42.782;23.108;2023-04-06T01:20:08;-13970.47;;;-1.97
62930;BMP280;49036;42.782;23.108;2023-04-06T01:22:34;-13971.69;;;-1.93
62930;BMP280;49036;42.782;23.108;2023-04-06T01:24:59;-13971.34;;;-1.94
62930;BMP280;49036;42.782;23.108;2023-04-06T01:27:25;-13969.94;;;-1.98
62930;BMP280;49036;42.782;23.108;2023-04-06T01:29:51;-13969.25;;;-2.00
62930;BMP280;49036;42.782;23.108;2023-04-06T01:32:17;-13969.59;;;-1.99
62930;BMP280;49036;42.782;23.108;2023-04-06T01:34:43;-13971.00;;;-1.95
62930;BMP280;49036;42.782;23.108;2023-04-06T01:37:09;-13973.41;;;-1.88
62930;BMP280;49036;42.782;23.108;2023-04-06T01:39:34;-13973.06;;;-1.89
62930;BMP280;49036;42.782;23.108;2023-04-06T01:42:00;-13974.44;;;-1.85
62930;BMP280;49036;42.782;23.108;2023-04-06T01:44:26;-13972.88;;;-1.90
62930;BMP280;49036;42.782;23.108;2023-04-06T01:46:51;-13970.13;;;-1.98
62930;BMP280;49036;42.782;23.108;2023-04-06T01:49:17;-13970.28;;;-1.97
62930;BMP280;49036;42.782;23.108;2023-04-06T01:51:42;-13969.44;;;-2.00
62930;BMP280;49036;42.782;23.108;2023-04-06T01:54:08;-13969.94;;;-1.98
62930;BMP280;49036;42.782;23.108;2023-04-06T01:56:33;-13970.28;;;-1.97
62930;BMP280;49036;42.782;23.108;2023-04-06T01:58:59;-13972.88;;;-1.90
62930;BMP280;49036;42.782;23.108;2023-04-06T02:01:25;-13970.28;;;-1.97
62930;BMP280;49036;42.782;23.108;2023-04-06T02:03:50;-13972.00;;;-1.92
62930;BMP280;49036;42.782;23.108;2023-04-06T02:06:16;-13970.47;;;-1.97
62930;BMP280;49036;42.782;23.108;2023-04-06T02:08:41;-13972.00;;;-1.92
62930;BMP280;49036;42.782;23.108;2023-04-06T02:11:07;-13971.16;;;-1.95
62930;BMP280;49036;42.782;23.108;2023-04-06T02:13:32;-13970.66;;;-1.96
62930;BMP280;49036;42.782;23.108;2023-04-06T02:15:58;-13971.50;;;-1.94
62930;BMP280;49036;42.782;23.108;2023-04-06T02:18:24;-13970.47;;;-1.97
62930;BMP280;49036;42.782;23.108;2023-04-06T02:20:49;-13972.53;;;-1.91
62930;BMP280;49036;42.782;23.108;2023-04-06T02:23:15;-13971.50;;;-1.94
62930;BMP280;49036;42.782;23.108;2023-04-06T02:25:41;-13971.84;;;-1.93
62930;BMP280;49036;42.782;23.108;2023-04-06T02:28:06;-13971.00;;;-1.95
62930;BMP280;49036;42.782;23.108;2023-04-06T02:30:32;-13968.56;;;-2.02
62930;BMP280;49036;42.782;23.108;2023-04-06T02:33:00;-13969.25;;;-2.00
62930;BMP280;49036;42.782;23.108;2023-04-06T02:35:28;-13970.81;;;-1.96
62930;BMP280;49036;42.782;23.108;2023-04-06T02:37:53;-13973.75;;;-1.87
62930;BMP280;49036;42.782;23.108;2023-04-06T02:40:19;-13972.38;;;-1.91
62930;BMP280;49036;42.782;23.108;2023-04-06T02:42:44;-13973.41;;;-1.88
62930;BMP280;49036;42.782;23.108;2023-04-06T02:45:10;-13973.91;;;-1.87
62930;BMP280;49036;42.782;23.108;2023-04-06T02:47:36;-13977.53;;;-1.76
62930;BMP280;49036;42.782;23.108;2023-04-06T02:50:02;-13979.59;;;-1.70
62930;BMP280;49036;42.782;23.108;2023-04-06T02:52:27;-13981.66;;;-1.64
62930;BMP280;49036;42.782;23.108;2023-04-06T02:54:53;-13981.16;;;-1.65
62930;BMP280;49036;42.782;23.108;2023-04-06T02:57:18;-13982.34;;;-1.62
62930;BMP280;49036;42.782;23.108;2023-04-06T02:59:44;-13982.34;;;-1.62
62930;BMP280;49036;42.782;23.108;2023-04-06T03:02:09;-13982.34;;;-1.62
62930;BMP280;49036;42.782;23.108;2023-04-06T03:04:35;-13983.03;;;-1.60
62930;BMP280;49036;42.782;23.108;2023-04-06T03:07:00;-13984.94;;;-1.54
62930;BMP280;49036;42.782;23.108;2023-04-06T03:09:26;-13980.28;;;-1.68
62930;BMP280;49036;42.782;23.108;2023-04-06T03:11:52;-13982.00;;;-1.63
62930;BMP280;49036;42.782;23.108;2023-04-06T03:14:18;-13983.56;;;-1.58
62930;BMP280;49036;42.782;23.108;2023-04-06T03:16:47;-13985.47;;;-1.52
62930;BMP280;49036;42.782;23.108;2023-04-06T03:19:13;-13982.88;;;-1.60
62930;BMP280;49036;42.782;23.108;2023-04-06T03:21:38;-13983.56;;;-1.58
62930;BMP280;49036;42.782;23.108;2023-04-06T03:24:05;-13982.34;;;-1.62
62930;BMP280;49036;42.782;23.108;2023-04-06T03:26:30;-13981.31;;;-1.65
62930;BMP280;49036;42.782;23.108;2023-04-06T03:28:56;-13981.31;;;-1.65
62930;BMP280;49036;42.782;23.108;2023-04-06T03:31:21;-13981.16;;;-1.65
62930;BMP280;49036;42.782;23.108;2023-04-06T03:33:47;-13979.44;;;-1.70
62930;BMP280;49036;42.782;23.108;2023-04-06T03:36:12;-13979.78;;;-1.69
62930;BMP280;49036;42.782;23.108;2023-04-06T03:38:38;-13979.78;;;-1.69
62930;BMP280;49036;42.782;23.108;2023-04-06T03:41:03;-13979.94;;;-1.69
62930;BMP280;49036;42.782;23.108;2023-04-06T03:43:29;-13976.84;;;-1.78
62930;BMP280;49036;42.782;23.108;2023-04-06T03:45:55;-13978.56;;;-1.73
62930;BMP280;49036;42.782;23.108;2023-04-06T03:48:20;-13979.78;;;-1.69
62930;BMP280;49036;42.782;23.108;2023-04-06T03:50:46;-13978.22;;;-1.74
62930;BMP280;49036;42.782;23.108;2023-04-06T03:53:11;-13979.44;;;-1.70
62930;BMP280;49036;42.782;23.108;2023-04-06T03:55:37;-13978.91;;;-1.72
62930;BMP280;49036;42.782;23.108;2023-04-06T03:58:02;-13980.13;;;-1.68
62930;BMP280;49036;42.782;23.108;2023-04-06T04:00:28;-13976.50;;;-1.79
62930;BMP280;49036;42.782;23.108;2023-04-06T04:02:53;-13976.50;;;-1.79
62930;BMP280;49036;42.782;23.108;2023-04-06T04:05:19;-13975.97;;;-1.81
62930;BMP280;49036;42.782;23.108;2023-04-06T04:07:44;-13975.81;;;-1.81
62930;BMP280;49036;42.782;23.108;2023-04-06T04:10:10;-13976.50;;;-1.79
62930;BMP280;49036;42.782;23.108;2023-04-06T04:12:36;-13976.84;;;-1.78
62930;BMP280;49036;42.782;23.108;2023-04-06T04:15:01;-13978.56;;;-1.73
62930;BMP280;49036;42.782;23.108;2023-04-06T04:17:28;-13976.16;;;-1.80
62930;BMP280;49036;42.782;23.108;2023-04-06T04:19:53;-13973.91;;;-1.87
62930;BMP280;49036;42.782;23.108;2023-04-06T04:22:19;-13974.25;;;-1.86
62930;BMP280;49036;42.782;23.108;2023-04-06T04:24:44;-13974.78;;;-1.84
62930;BMP280;49036;42.782;23.108;2023-04-06T04:27:10;-13973.41;;;-1.88
62930;BMP280;49036;42.782;23.108;2023-04-06T04:29:35;-13974.94;;;-1.84
62930;BMP280;49036;42.782;23.108;2023-04-06T04:32:01;-13976.50;;;-1.79
62930;BMP280;49036;42.782;23.108;2023-04-06T04:34:27;-13977.72;;;-1.75
62930;BMP280;49036;42.782;23.108;2023-04-06T04:36:53;-13980.47;;;-1.67
62930;BMP280;49036;42.782;23.108;2023-04-06T04:39:18;-13981.50;;;-1.64
62930;BMP280;49036;42.782;23.108;2023-04-06T04:41:44;-13983.56;;;-1.58
62930;BMP280;49036;42.782;23.108;2023-04-06T04:44:10;-13984.94;;;-1.54
62930;BMP280;49036;42.782;23.108;2023-04-06T04:46:36;-13991.50;;;-1.35
62930;BMP280;49036;42.782;23.108;2023-04-06T04:49:01;-13995.81;;;-1.22
62930;BMP280;49036;42.782;23.108;2023-04-06T04:51:27;-13997.19;;;-1.18
62930;BMP280;49036;42.782;23.108;2023-04-06T04:53:52;-13998.38;;;-1.14
62930;BMP280;49036;42.782;23.108;2023-04-06T04:56:18;-13998.03;;;-1.15
62930;BMP280;49036;42.782;23.108;2023-04-06T04:58:43;-13998.91;;;-1.13
62930;BMP280;49036;42.782;23.108;2023-04-06T05:01:09;-13998.22;;;-1.15
62930;BMP280;49036;42.782;23.108;2023-04-06T05:03:36;-14005.81;;;-0.92
62930;BMP280;49036;42.782;23.108;2023-04-06T05:06:04;-14005.63;;;-0.93
62930;BMP280;49036;42.782;23.108;2023-04-06T05:08:30;-14010.13;;;-0.80
62930;BMP280;49036;42.782;23.108;2023-04-06T05:10:55;-14014.06;;;-0.68
62930;BMP280;49036;42.782;23.108;2023-04-06T05:13:21;-14014.59;;;-0.66
62930;BMP280;49036;42.782;23.108;2023-04-06T05:15:47;-14014.06;;;-0.68
62930;BMP280;49036;42.782;23.108;2023-04-06T05:18:13;-14018.91;;;-0.54
62930;BMP280;49036;42.782;23.108;2023-04-06T05:20:38;-14021.66;;;-0.46
62930;BMP280;49036;42.782;23.108;2023-04-06T05:23:04;-14022.69;;;-0.42
62930;BMP280;49036;42.782;23.108;2023-04-06T05:25:30;-14023.56;;;-0.40
62930;BMP280;49036;42.782;23.108;2023-04-06T05:27:56;-14023.72;;;-0.39
62930;BMP280;49036;42.782;23.108;2023-04-06T05:30:21;-14032.00;;;-0.15
62930;BMP280;49036;42.782;23.108;2023-04-06T05:32:47;-14031.50;;;-0.17
62930;BMP280;49036;42.782;23.108;2023-04-06T05:35:13;-14029.78;;;-0.22
62930;BMP280;49036;42.782;23.108;2023-04-06T05:37:39;-14025.81;;;-0.33
62930;BMP280;49036;42.782;23.108;2023-04-06T05:40:05;-14032.00;;;-0.15
62930;BMP280;49036;42.782;23.108;2023-04-06T05:42:41;-14033.38;;;-0.11
62930;BMP280;49036;42.782;23.108;2023-04-06T05:45:08;-14036.50;;;-0.02
62930;BMP280;49036;42.782;23.108;2023-04-06T05:47:34;-14032.19;;;-0.14
62930;BMP280;49036;42.782;23.108;2023-04-06T05:50:00;-14025.81;;;-0.33
62930;BMP280;49036;42.782;23.108;2023-04-06T05:52:26;-14026.84;;;-0.30
62930;BMP280;49036;42.782;23.108;2023-04-06T05:54:53;-14024.59;;;-0.37
62930;BMP280;49036;42.782;23.108;2023-04-06T05:57:19;-14024.41;;;-0.37
62930;BMP280;49036;42.782;23.108;2023-04-06T05:59:44;-14021.66;;;-0.46
62930;BMP280;49036;42.782;23.108;2023-04-06T06:02:10;-14012.69;;;-0.72
62930;BMP280;49036;42.782;23.108;2023-04-06T06:04:35;-14014.41;;;-0.67
62930;BMP280;49036;42.782;23.108;2023-04-06T06:07:01;-14021.31;;;-0.47
62930;BMP280;49036;42.782;23.108;2023-04-06T06:09:27;-14027.00;;;-0.30
62930;BMP280;49036;42.782;23.108;2023-04-06T06:11:52;-14024.94;;;-0.36
62930;BMP280;49036;42.782;23.108;2023-04-06T06:14:18;-14024.25;;;-0.38
62930;BMP280;49036;42.782;23.108;2023-04-06T06:16:43;-14026.50;;;-0.31
62930;BMP280;49036;42.782;23.108;2023-04-06T06:19:09;-14022.34;;;-0.43
62930;BMP280;49036;42.782;23.108;2023-04-06T06:21:35;-14024.41;;;-0.37
62930;BMP280;49036;42.782;23.108;2023-04-06T06:24:01;-14025.63;;;-0.34
62930;BMP280;49036;42.782;23.108;2023-04-06T06:26:27;-14025.97;;;-0.33
62930;BMP280;49036;42.782;23.108;2023-04-06T06:28:52;-14018.72;;;-0.54
62930;BMP280;49036;42.782;23.108;2023-04-06T06:31:18;-14027.69;;;-0.28
62930;BMP280;49036;42.782;23.108;2023-04-06T06:33:46;-14037.69;;;0.02
62930;BMP280;49036;42.782;23.108;2023-04-06T06:36:11;-14042.34;;;0.16
62930;BMP280;49036;42.782;23.108;2023-04-06T06:38:37;-14049.78;;;0.37
62930;BMP280;49036;42.782;23.108;2023-04-06T06:41:03;-14061.16;;;0.71
62930;BMP280;49036;42.782;23.108;2023-04-06T06:43:29;-14053.75;;;0.49
62930;BMP280;49036;42.782;23.108;2023-04-06T06:45:54;-14062.03;;;0.74
62930;BMP280;49036;42.782;23.108;2023-04-06T06:48:20;-14070.28;;;0.98
62930;BMP280;49036;42.782;23.108;2023-04-06T06:50:47;-14072.53;;;1.05
62930;BMP280;49036;42.782;23.108;2023-04-06T06:53:13;-14062.88;;;0.76
62930;BMP280;49036;42.782;23.108;2023-04-06T06:55:39;-14053.56;;;0.49
62930;BMP280;49036;42.782;23.108;2023-04-06T06:58:04;-14056.84;;;0.58
62930;BMP280;49036;42.782;23.108;2023-04-06T07:00:31;-14052.34;;;0.45
62930;BMP280;49036;42.782;23.108;2023-04-06T07:02:56;-14053.03;;;0.47
62930;BMP280;49036;42.782;23.108;2023-04-06T07:05:22;-14051.66;;;0.43
62930;BMP280;49036;42.782;23.108;2023-04-06T07:07:47;-14052.88;;;0.47
62930;BMP280;49036;42.782;23.108;2023-04-06T07:10:13;-14051.16;;;0.42
62930;BMP280;49036;42.782;23.108;2023-04-06T07:12:38;-14059.94;;;0.68
62930;BMP280;49036;42.782;23.108;2023-04-06T07:15:05;-14054.09;;;0.50
62930;BMP280;49036;42.782;23.108;2023-04-06T07:17:31;-14051.31;;;0.42
62930;BMP280;49036;42.782;23.108;2023-04-06T07:19:57;-14062.03;;;0.74
62930;BMP280;49036;42.782;23.108;2023-04-06T07:22:22;-14069.94;;;0.97
62930;BMP280;49036;42.782;23.108;2023-04-06T07:24:48;-14064.09;;;0.80
62930;BMP280;49036;42.782;23.108;2023-04-06T07:27:13;-14070.13;;;0.98
62930;BMP280;49036;42.782;23.108;2023-04-06T07:29:39;-14068.75;;;0.93
62930;BMP280;49036;42.782;23.108;2023-04-06T07:32:04;-14074.28;;;1.10
62930;BMP280;49036;42.782;23.108;2023-04-06T07:34:30;-14083.75;;;1.38
62930;BMP280;49036;42.782;23.108;2023-04-06T07:36:56;-14091.00;;;1.59
62930;BMP280;49036;42.782;23.108;2023-04-06T07:39:21;-14085.47;;;1.43
62930;BMP280;49036;42.782;23.108;2023-04-06T07:41:47;-14094.28;;;1.69
62930;BMP280;49036;42.782;23.108;2023-04-06T07:44:13;-14083.06;;;1.36
62930;BMP280;49036;42.782;23.108;2023-04-06T07:46:38;-14098.25;;;1.81
62930;BMP280;49036;42.782;23.108;2023-04-06T07:49:04;-14112.41;;;2.22
62930;BMP280;49036;42.782;23.108;2023-04-06T07:51:30;-14110.34;;;2.16
62930;BMP280;49036;42.782;23.108;2023-04-06T07:53:56;-14107.56;;;2.08
62930;BMP280;49036;42.782;23.108;2023-04-06T07:56:22;-14103.09;;;1.95
62930;BMP280;49036;42.782;23.108;2023-04-06T07:58:48;-14110.84;;;2.18
62930;BMP280;49036;42.782;23.108;2023-04-06T08:01:13;-14103.41;;;1.96
62930;BMP280;49036;42.782;23.108;2023-04-06T08:03:39;-14101.72;;;1.91
62930;BMP280;49036;42.782;23.108;2023-04-06T08:06:05;-14097.91;;;1.80
62930;BMP280;49036;42.782;23.108;2023-04-06T08:08:31;-14107.75;;;2.09
62930;BMP280;49036;42.782;23.108;2023-04-06T08:10:57;-14095.84;;;1.73
62930;BMP280;49036;42.782;23.108;2023-04-06T08:13:22;-14103.25;;;1.95
62930;BMP280;49036;42.782;23.108;2023-04-06T08:15:48;-14106.88;;;2.06
62930;BMP280;49036;42.782;23.108;2023-04-06T08:18:13;-14115.00;;;2.30
62930;BMP280;49036;42.782;23.108;2023-04-06T08:20:39;-14111.88;;;2.21
62930;BMP280;49036;42.782;23.108;2023-04-06T08:23:05;-14105.16;;;2.01
62930;BMP280;49036;42.782;23.108;2023-04-06T08:25:34;-14101.53;;;1.90
62930;BMP280;49036;42.782;23.108;2023-04-06T08:28:00;-14097.38;;;1.78
62930;BMP280;49036;42.782;23.108;2023-04-06T08:30:26;-14091.69;;;1.61
62930;BMP280;49036;42.782;23.108;2023-04-06T08:32:52;-14091.53;;;1.61
62930;BMP280;49036;42.782;23.108;2023-04-06T08:35:17;-14085.47;;;1.43
62930;BMP280;49036;42.782;23.108;2023-04-06T08:37:43;-14081.34;;;1.31
62930;BMP280;49036;42.782;23.108;2023-04-06T08:40:09;-14084.09;;;1.39
62930;BMP280;49036;42.782;23.108;2023-04-06T08:42:39;-14090.31;;;1.57
62930;BMP280;49036;42.782;23.108;2023-04-06T08:45:06;-14091.69;;;1.61
62930;BMP280;49036;42.782;23.108;2023-04-06T08:47:31;-14090.13;;;1.57
62930;BMP280;49036;42.782;23.108;2023-04-06T08:49:58;-14099.09;;;1.83
62930;BMP280;49036;42.782;23.108;2023-04-06T08:52:25;-14106.53;;;2.05
62930;BMP280;49036;42.782;23.108;2023-04-06T08:54:51;-14107.22;;;2.07
62930;BMP280;49036;42.782;23.108;2023-04-06T08:57:18;-14116.19;;;2.33
62930;BMP280;49036;42.782;23.108;2023-04-06T08:59:44;-14121.38;;;2.49
62930;BMP280;49036;42.782;23.108;2023-04-06T09:02:15;-14119.13;;;2.42
62930;BMP280;49036;42.782;23.108;2023-04-06T09:04:43;-14118.78;;;2.41
62930;BMP280;49036;42.782;23.108;2023-04-06T09:07:09;-14122.75;;;2.53
62930;BMP280;49036;42.782;23.108;2023-04-06T09:09:35;-14126.91;;;2.65
62930;BMP280;49036;42.782;23.108;2023-04-06T09:12:01;-14124.47;;;2.58
62930;BMP280;49036;42.782;23.108;2023-04-06T09:14:37;-14117.91;;;2.39
62930;BMP280;49036;42.782;23.108;2023-04-06T09:17:04;-14126.03;;;2.63
62930;BMP280;49036;42.782;23.108;2023-04-06T09:19:30;-14126.56;;;2.64
62930;BMP280;49036;42.782;23.108;2023-04-06T09:22:05;-14133.09;;;2.83
62930;BMP280;49036;42.782;23.108;2023-04-06T09:27:06;-14142.78;;;3.12
62930;BMP280;49036;42.782;23.108;2023-04-06T09:29:32;-14139.31;;;3.02
62930;BMP280;49036;42.782;23.108;2023-04-06T09:32:02;-14134.16;;;2.86
62930;BMP280;49036;42.782;23.108;2023-04-06T09:34:27;-14141.22;;;3.07
62930;BMP280;49036;42.782;23.108;2023-04-06T09:36:53;-14147.09;;;3.25
62930;BMP280;49036;42.782;23.108;2023-04-06T09:39:21;-14153.31;;;3.43
62930;BMP280;49036;42.782;23.108;2023-04-06T09:41:53;-14159.69;;;3.62
62930;BMP280;49036;42.782;23.108;2023-04-06T09:44:19;-14154.88;;;3.47
62930;BMP280;49036;42.782;23.108;2023-04-06T09:46:46;-14146.56;;;3.23
62930;BMP280;49036;42.782;23.108;2023-04-06T09:49:13;-14156.94;;;3.54
62930;BMP280;49036;42.782;23.108;2023-04-06T09:52:00;-14162.63;;;3.70
62930;BMP280;49036;42.782;23.108;2023-04-06T09:54:29;-14161.06;;;3.66
62930;BMP280;49036;42.782;23.108;2023-04-06T09:57:07;-14158.50;;;3.58
62930;BMP280;49036;42.782;23.108;2023-04-06T10:02:05;-14177.13;;;4.13
62930;BMP280;49036;42.782;23.108;2023-04-06T10:04:49;-14189.75;;;4.50
62930;BMP280;49036;42.782;23.108;2023-04-06T10:07:15;-14188.88;;;4.48
62930;BMP280;49036;42.782;23.108;2023-04-06T10:09:45;-14180.06;;;4.22
62930;BMP280;49036;42.782;23.108;2023-04-06T10:12:12;-14176.78;;;4.12
62930;BMP280;49036;42.782;23.108;2023-04-06T10:14:39;-14174.19;;;4.04
62930;BMP280;49036;42.782;23.108;2023-04-06T10:17:06;-14198.53;;;4.76
62930;BMP280;49036;42.782;23.108;2023-04-06T10:19:54;-14193.03;;;4.60
62930;BMP280;49036;42.782;23.108;2023-04-06T10:25:00;-14208.91;;;5.07
62930;BMP280;49036;42.782;23.108;2023-04-06T10:27:29;-14215.31;;;5.26
62930;BMP280;49036;42.782;23.108;2023-04-06T10:30:01;-14221.00;;;5.42
62930;BMP280;49036;42.782;23.108;2023-04-06T10:32:37;-14234.13;;;5.81
62930;BMP280;49036;42.782;23.108;2023-04-06T10:35:11;-14233.97;;;5.80
62930;BMP280;49036;42.782;23.108;2023-04-06T10:38:06;-14213.56;;;5.20
62930;BMP280;49036;42.782;23.108;2023-04-06T10:40:31;-14216.00;;;5.28
62930;BMP280;49036;42.782;23.108;2023-04-06T10:43:10;-14231.53;;;5.73
62930;BMP280;49036;42.782;23.108;2023-04-06T10:45:37;-14223.41;;;5.49
62930;BMP280;49036;42.782;23.108;2023-04-06T10:48:18;-14221.34;;;5.43
62930;BMP280;49036;42.782;23.108;2023-04-06T10:50:48;-14234.47;;;5.82
62930;BMP280;49036;42.782;23.108;2023-04-06T10:53:27;-14269.38;;;6.85
62930;BMP280;49036;42.782;23.108;2023-04-06T10:55:56;-14268.00;;;6.81
62930;BMP280;49036;42.782;23.108;2023-04-06T10:58:26;-14266.28;;;6.76
62930;BMP280;49036;42.782;23.108;2023-04-06T11:00:53;-14263.50;;;6.67
62930;BMP280;49036;42.782;23.108;2023-04-06T11:03:19;-14262.63;;;6.65
62930;BMP280;49036;42.782;23.108;2023-04-06T11:05:46;-14256.94;;;6.48
62930;BMP280;49036;42.782;23.108;2023-04-06T11:08:31;-14255.91;;;6.45
62930;BMP280;49036;42.782;23.108;2023-04-06T11:11:06;-14276.81;;;7.07
62930;BMP280;49036;42.782;23.108;2023-04-06T11:13:42;-14272.16;;;6.93
62930;BMP280;49036;42.782;23.108;2023-04-06T11:16:16;-14261.25;;;6.61
62930;BMP280;49036;42.782;23.108;2023-04-06T11:21:19;-14254.34;;;6.40
62930;BMP280;49036;42.782;23.108;2023-04-06T11:23:45;-14264.53;;;6.70
62930;BMP280;49036;42.782;23.108;2023-04-06T11:26:14;-14230.50;;;5.70
62930;BMP280;49036;42.782;23.108;2023-04-06T11:28:43;-14240.19;;;5.99
62930;BMP280;49036;42.782;23.108;2023-04-06T11:31:10;-14290.13;;;7.46
62930;BMP280;49036;42.782;23.108;2023-04-06T11:33:39;-14346.31;;;9.11
62930;BMP280;49036;42.782;23.108;2023-04-06T11:36:05;-14336.44;;;8.82
62930;BMP280;49036;42.782;23.108;2023-04-06T11:38:32;-14285.97;;;7.34
62930;BMP280;49036;42.782;23.108;2023-04-06T11:40:58;-14275.25;;;7.02
62930;BMP280;49036;42.782;23.108;2023-04-06T11:43:30;-14262.47;;;6.64
62930;BMP280;49036;42.782;23.108;2023-04-06T11:46:03;-14276.13;;;7.05
62930;BMP280;49036;42.782;23.108;2023-04-06T11:48:30;-14281.31;;;7.20
62930;BMP280;49036;42.782;23.108;2023-04-06T11:50:59;-14287.34;;;7.38
62930;BMP280;49036;42.782;23.108;2023-04-06T11:53:30;-14296.84;;;7.66
62930;BMP280;49036;42.782;23.108;2023-04-06T11:55:56;-14286.66;;;7.36
62930;BMP280;49036;42.782;23.108;2023-04-06T11:58:22;-14282.69;;;7.24
62930;BMP280;49036;42.782;23.108;2023-04-06T12:00:47;-14312.06;;;8.10
62930;BMP280;49036;42.782;23.108;2023-04-06T12:03:14;-14308.63;;;8.00
62930;BMP280;49036;42.782;23.108;2023-04-06T12:05:39;-14265.59;;;6.74
62930;BMP280;49036;42.782;23.108;2023-04-06T12:08:05;-14277.84;;;7.10
62930;BMP280;49036;42.782;23.108;2023-04-06T12:10:31;-14309.81;;;8.04
62930;BMP280;49036;42.782;23.108;2023-04-06T12:12:56;-14312.75;;;8.12
62930;BMP280;49036;42.782;23.108;2023-04-06T12:15:22;-14289.44;;;7.44
62930;BMP280;49036;42.782;23.108;2023-04-06T12:17:47;-14266.09;;;6.75
62930;BMP280;49036;42.782;23.108;2023-04-06T12:20:15;-14283.03;;;7.25
62930;BMP280;49036;42.782;23.108;2023-04-06T12:22:40;-14259.38;;;6.55
62930;BMP280;49036;42.782;23.108;2023-04-06T12:25:06;-14265.41;;;6.73
62930;BMP280;49036;42.782;23.108;2023-04-06T12:27:35;-14249.16;;;6.25
62930;BMP280;49036;42.782;23.108;2023-04-06T12:30:01;-14237.59;;;5.91
62930;BMP280;49036;42.782;23.108;2023-04-06T12:32:27;-14227.91;;;5.63
62930;BMP280;49036;42.782;23.108;2023-04-06T12:34:52;-14223.06;;;5.48
62930;BMP280;49036;42.782;23.108;2023-04-06T12:37:18;-14215.66;;;5.27
62930;BMP280;49036;42.782;23.108;2023-04-06T12:39:44;-14201.13;;;4.84
62930;BMP280;49036;42.782;23.108;2023-04-06T12:42:10;-14189.06;;;4.48
62930;BMP280;49036;42.782;23.108;2023-04-06T12:44:36;-14190.44;;;4.52
62930;BMP280;49036;42.782;23.108;2023-04-06T12:47:02;-14186.97;;;4.42
62930;BMP280;49036;42.782;23.108;2023-04-06T12:49:27;-14181.09;;;4.25
62930;BMP280;49036;42.782;23.108;2023-04-06T12:51:53;-14192.00;;;4.57
62930;BMP280;49036;42.782;23.108;2023-04-06T12:54:19;-14195.63;;;4.68
62930;BMP280;49036;42.782;23.108;2023-04-06T12:56:45;-14209.25;;;5.08
62930;BMP280;49036;42.782;23.108;2023-04-06T12:59:11;-14214.09;;;5.22
62930;BMP280;49036;42.782;23.108;2023-04-06T13:01:37;-14230.16;;;5.69
62930;BMP280;49036;42.782;23.108;2023-04-06T13:04:02;-14237.25;;;5.90
62930;BMP280;49036;42.782;23.108;2023-04-06T13:06:28;-14254.00;;;6.39
62930;BMP280;49036;42.782;23.108;2023-04-06T13:08:54;-14263.34;;;6.67
62930;BMP280;49036;42.782;23.108;2023-04-06T13:11:20;-14257.28;;;6.49
62930;BMP280;49036;42.782;23.108;2023-04-06T13:13:49;-14246.41;;;6.17
62930;BMP280;49036;42.782;23.108;2023-04-06T13:16:14;-14251.75;;;6.33
62930;BMP280;49036;42.782;23.108;2023-04-06T13:18:40;-14254.53;;;6.41
62930;BMP280;49036;42.782;23.108;2023-04-06T13:21:06;-14257.13;;;6.49
62930;BMP280;49036;42.782;23.108;2023-04-06T13:23:32;-14283.38;;;7.26
62930;BMP280;49036;42.782;23.108;2023-04-06T13:26:03;-14293.75;;;7.56
62930;BMP280;49036;42.782;23.108;2023-04-06T13:28:30;-14301.88;;;7.80
62930;BMP280;49036;42.782;23.108;2023-04-06T13:30:58;-14280.97;;;7.19
62930;BMP280;49036;42.782;23.108;2023-04-06T13:33:24;-14279.22;;;7.14
62930;BMP280;49036;42.782;23.108;2023-04-06T13:35:49;-14301.34;;;7.79
62930;BMP280;49036;42.782;23.108;2023-04-06T13:38:15;-14296.84;;;7.66
62930;BMP280;49036;42.782;23.108;2023-04-06T13:40:41;-14291.69;;;7.50
62930;BMP280;49036;42.782;23.108;2023-04-06T13:43:07;-14300.66;;;7.77
62930;BMP280;49036;42.782;23.108;2023-04-06T13:45:33;-14312.25;;;8.11
62930;BMP280;49036;42.782;23.108;2023-04-06T13:47:58;-14280.78;;;7.18
62930;BMP280;49036;42.782;23.108;2023-04-06T13:50:27;-14257.47;;;6.50
62930;BMP280;49036;42.782;23.108;2023-04-06T13:52:53;-14241.56;;;6.03
62930;BMP280;49036;42.782;23.108;2023-04-06T13:55:19;-14252.78;;;6.36
62930;BMP280;49036;42.782;23.108;2023-04-06T13:57:45;-14241.38;;;6.02
62930;BMP280;49036;42.782;23.108;2023-04-06T14:00:11;-14238.97;;;5.95